sensor_id;sensor_type;location;lat;lon;timestamp;P1;durP1;ratioP1;P2;durP2;ratioP2
71038;SDS011;58692;43.212;27.908;2022-09-01T00:02:04;16.15;;;7.60;;
71038;SDS011;58692;43.212;27.908;2022-09-01T00:04:32;14.53;;;7.83;;
71038;SDS011;58692;43.212;27.908;2022-09-01T00:06:59;14.13;;;7.60;;
71038;SDS011;58692;43.212;27.908;2022-09-01T00:09:25;15.45;;;7.65;;
71038;SDS011;58692;43.212;27.908;2022-09-01T00:11:51;14.63;;;7.53;;
71038;SDS011;58692;43.212;27.908;2022-09-01T00:14:21;17.77;;;8.35;;
71038;SDS011;58692;43.212;27.908;2022-09-01T00:16:49;14.55;;;7.90;;
71038;SDS011;58692;43.212;27.908;2022-09-01T00:19:15;15.23;;;8.50;;
71038;SDS011;58692;43.212;27.908;2022-09-01T00:21:42;13.35;;;8.07;;
71038;SDS011;58692;43.212;27.908;2022-09-01T00:24:09;14.57;;;8.23;;
71038;SDS011;58692;43.212;27.908;2022-09-01T00:26:37;15.87;;;7.97;;
71038;SDS011;58692;43.212;27.908;2022-09-01T00:29:03;14.80;;;8.02;;
71038;SDS011;58692;43.212;27.908;2022-09-01T00:31:28;13.63;;;8.43;;
71038;SDS011;58692;43.212;27.908;2022-09-01T00:33:54;15.93;;;8.32;;
71038;SDS011;58692;43.212;27.908;2022-09-01T00:36:20;15.43;;;8.13;;
71038;SDS011;58692;43.212;27.908;2022-09-01T00:38:46;15.95;;;8.75;;
71038;SDS011;58692;43.212;27.908;2022-09-01T00:41:12;13.82;;;7.20;;
71038;SDS011;58692;43.212;27.908;2022-09-01T00:46:24;16.88;;;8.48;;
71038;SDS011;58692;43.212;27.908;2022-09-01T00:48:54;12.57;;;7.70;;
71038;SDS011;58692;43.212;27.908;2022-09-01T00:51:23;14.38;;;7.68;;
71038;SDS011;58692;43.212;27.908;2022-09-01T00:53:49;13.75;;;7.60;;
71038;SDS011;58692;43.212;27.908;2022-09-01T00:56:16;17.02;;;8.07;;
71038;SDS011;58692;43.212;27.908;2022-09-01T00:58:42;13.30;;;7.53;;
71038;SDS011;58692;43.212;27.908;2022-09-01T01:01:09;12.37;;;7.40;;
71038;SDS011;58692;43.212;27.908;2022-09-01T01:03:36;13.52;;;7.65;;
71038;SDS011;58692;43.212;27.908;2022-09-01T01:06:07;14.27;;;8.35;;
71038;SDS011;58692;43.212;27.908;2022-09-01T01:08:34;14.32;;;8.40;;
71038;SDS011;58692;43.212;27.908;2022-09-01T01:11:11;14.03;;;7.47;;
71038;SDS011;58692;43.212;27.908;2022-09-01T01:16:26;13.25;;;7.88;;
71038;SDS011;58692;43.212;27.908;2022-09-01T01:18:52;11.45;;;7.53;;
71038;SDS011;58692;43.212;27.908;2022-09-01T01:21:24;15.15;;;7.90;;
71038;SDS011;58692;43.212;27.908;2022-09-01T01:26:52;14.50;;;7.18;;
71038;SDS011;58692;43.212;27.908;2022-09-01T01:29:21;11.02;;;7.15;;
71038;SDS011;58692;43.212;27.908;2022-09-01T01:31:48;15.70;;;7.60;;
71038;SDS011;58692;43.212;27.908;2022-09-01T01:34:16;15.10;;;7.05;;
71038;SDS011;58692;43.212;27.908;2022-09-01T01:36:42;12.83;;;7.30;;
71038;SDS011;58692;43.212;27.908;2022-09-01T01:41:39;13.48;;;7.20;;
71038;SDS011;58692;43.212;27.908;2022-09-01T01:44:07;13.07;;;7.10;;
71038;SDS011;58692;43.212;27.908;2022-09-01T01:46:34;12.07;;;7.63;;
71038;SDS011;58692;43.212;27.908;2022-09-01T01:49:00;13.10;;;7.25;;
71038;SDS011;58692;43.212;27.908;2022-09-01T01:51:26;14.30;;;6.83;;
71038;SDS011;58692;43.212;27.908;2022-09-01T01:53:54;13.25;;;7.22;;
71038;SDS011;58692;43.212;27.908;2022-09-01T01:56:20;15.57;;;7.03;;
71038;SDS011;58692;43.212;27.908;2022-09-01T01:58:49;14.13;;;7.60;;
71038;SDS011;58692;43.212;27.908;2022-09-01T02:01:18;13.73;;;6.78;;
71038;SDS011;58692;43.212;27.908;2022-09-01T02:03:46;14.30;;;7.40;;
71038;SDS011;58692;43.212;27.908;2022-09-01T02:06:17;11.43;;;6.60;;
71038;SDS011;58692;43.212;27.908;2022-09-01T02:08:49;13.02;;;7.20;;
71038;SDS011;58692;43.212;27.908;2022-09-01T02:11:16;12.35;;;6.90;;
71038;SDS011;58692;43.212;27.908;2022-09-01T02:13:43;14.68;;;7.00;;
71038;SDS011;58692;43.212;27.908;2022-09-01T02:16:09;13.67;;;7.03;;
71038;SDS011;58692;43.212;27.908;2022-09-01T02:18:37;11.57;;;7.07;;
71038;SDS011;58692;43.212;27.908;2022-09-01T02:21:06;14.93;;;6.95;;
71038;SDS011;58692;43.212;27.908;2022-09-01T02:23:35;13.38;;;7.00;;
71038;SDS011;58692;43.212;27.908;2022-09-01T02:26:02;12.18;;;6.88;;
71038;SDS011;58692;43.212;27.908;2022-09-01T02:28:31;14.00;;;7.00;;
71038;SDS011;58692;43.212;27.908;2022-09-01T02:31:00;12.10;;;6.95;;
71038;SDS011;58692;43.212;27.908;2022-09-01T02:33:28;13.07;;;6.80;;
71038;SDS011;58692;43.212;27.908;2022-09-01T02:35:57;12.77;;;6.70;;
71038;SDS011;58692;43.212;27.908;2022-09-01T02:38:25;12.27;;;6.40;;
71038;SDS011;58692;43.212;27.908;2022-09-01T02:40:54;12.73;;;6.87;;
71038;SDS011;58692;43.212;27.908;2022-09-01T02:43:22;11.90;;;6.50;;
71038;SDS011;58692;43.212;27.908;2022-09-01T02:45:52;13.80;;;6.80;;
71038;SDS011;58692;43.212;27.908;2022-09-01T02:48:24;11.82;;;7.03;;
71038;SDS011;58692;43.212;27.908;2022-09-01T02:51:00;14.65;;;6.82;;
71038;SDS011;58692;43.212;27.908;2022-09-01T02:53:28;12.17;;;6.73;;
71038;SDS011;58692;43.212;27.908;2022-09-01T02:55:55;13.20;;;6.63;;
71038;SDS011;58692;43.212;27.908;2022-09-01T02:58:23;10.82;;;6.65;;
71038;SDS011;58692;43.212;27.908;2022-09-01T03:00:51;12.85;;;6.45;;
71038;SDS011;58692;43.212;27.908;2022-09-01T03:03:19;12.82;;;6.40;;
71038;SDS011;58692;43.212;27.908;2022-09-01T03:05:46;11.70;;;6.17;;
71038;SDS011;58692;43.212;27.908;2022-09-01T03:08:12;12.45;;;6.57;;
71038;SDS011;58692;43.212;27.908;2022-09-01T03:10:41;10.52;;;6.10;;
71038;SDS011;58692;43.212;27.908;2022-09-01T03:15:36;12.80;;;6.93;;
71038;SDS011;58692;43.212;27.908;2022-09-01T03:18:03;11.97;;;6.13;;
71038;SDS011;58692;43.212;27.908;2022-09-01T03:20:30;12.68;;;6.80;;
71038;SDS011;58692;43.212;27.908;2022-09-01T03:22:59;12.38;;;6.57;;
71038;SDS011;58692;43.212;27.908;2022-09-01T03:25:26;11.93;;;6.60;;
71038;SDS011;58692;43.212;27.908;2022-09-01T03:27:54;12.55;;;6.65;;
71038;SDS011;58692;43.212;27.908;2022-09-01T03:30:23;11.07;;;6.43;;
71038;SDS011;58692;43.212;27.908;2022-09-01T03:32:48;12.30;;;6.78;;
71038;SDS011;58692;43.212;27.908;2022-09-01T03:35:14;12.27;;;6.50;;
71038;SDS011;58692;43.212;27.908;2022-09-01T03:37:41;12.50;;;6.82;;
71038;SDS011;58692;43.212;27.908;2022-09-01T03:40:08;12.07;;;6.65;;
71038;SDS011;58692;43.212;27.908;2022-09-01T03:42:35;11.40;;;6.60;;
71038;SDS011;58692;43.212;27.908;2022-09-01T03:45:02;11.33;;;6.67;;
71038;SDS011;58692;43.212;27.908;2022-09-01T03:47:34;12.52;;;6.53;;
71038;SDS011;58692;43.212;27.908;2022-09-01T03:50:04;12.38;;;6.93;;
71038;SDS011;58692;43.212;27.908;2022-09-01T03:52:34;14.40;;;6.75;;
71038;SDS011;58692;43.212;27.908;2022-09-01T03:55:01;15.15;;;6.45;;
71038;SDS011;58692;43.212;27.908;2022-09-01T03:57:26;13.63;;;6.20;;
71038;SDS011;58692;43.212;27.908;2022-09-01T03:59:52;12.82;;;7.10;;
71038;SDS011;58692;43.212;27.908;2022-09-01T04:02:18;12.97;;;6.63;;
71038;SDS011;58692;43.212;27.908;2022-09-01T04:04:45;11.02;;;6.28;;
71038;SDS011;58692;43.212;27.908;2022-09-01T04:07:11;9.97;;;6.30;;
71038;SDS011;58692;43.212;27.908;2022-09-01T04:09:36;10.90;;;6.70;;
71038;SDS011;58692;43.212;27.908;2022-09-01T04:12:03;13.00;;;6.57;;
71038;SDS011;58692;43.212;27.908;2022-09-01T04:14:33;56.67;;;9.82;;
71038;SDS011;58692;43.212;27.908;2022-09-01T04:16:59;44.17;;;9.30;;
71038;SDS011;58692;43.212;27.908;2022-09-01T04:19:40;13.77;;;6.88;;
71038;SDS011;58692;43.212;27.908;2022-09-01T04:22:06;16.33;;;6.45;;
71038;SDS011;58692;43.212;27.908;2022-09-01T04:24:37;13.98;;;6.55;;
71038;SDS011;58692;43.212;27.908;2022-09-01T04:27:06;12.98;;;6.32;;
71038;SDS011;58692;43.212;27.908;2022-09-01T04:29:33;13.93;;;6.83;;
71038;SDS011;58692;43.212;27.908;2022-09-01T04:32:01;11.20;;;6.40;;
71038;SDS011;58692;43.212;27.908;2022-09-01T04:34:30;10.32;;;6.38;;
71038;SDS011;58692;43.212;27.908;2022-09-01T04:37:02;13.05;;;6.68;;
71038;SDS011;58692;43.212;27.908;2022-09-01T04:39:32;15.00;;;6.75;;
71038;SDS011;58692;43.212;27.908;2022-09-01T04:41:58;11.60;;;6.40;;
71038;SDS011;58692;43.212;27.908;2022-09-01T04:44:24;10.30;;;6.15;;
71038;SDS011;58692;43.212;27.908;2022-09-01T04:46:50;12.10;;;6.25;;
71038;SDS011;58692;43.212;27.908;2022-09-01T04:49:17;12.40;;;6.37;;
71038;SDS011;58692;43.212;27.908;2022-09-01T04:51:48;12.23;;;6.57;;
71038;SDS011;58692;43.212;27.908;2022-09-01T04:54:15;14.00;;;6.95;;
71038;SDS011;58692;43.212;27.908;2022-09-01T04:56:43;13.97;;;6.27;;
71038;SDS011;58692;43.212;27.908;2022-09-01T04:59:11;11.05;;;6.68;;
71038;SDS011;58692;43.212;27.908;2022-09-01T05:01:38;16.25;;;6.40;;
71038;SDS011;58692;43.212;27.908;2022-09-01T05:04:08;10.93;;;6.60;;
71038;SDS011;58692;43.212;27.908;2022-09-01T05:06:38;10.73;;;6.50;;
71038;SDS011;58692;43.212;27.908;2022-09-01T05:09:05;11.88;;;6.45;;
71038;SDS011;58692;43.212;27.908;2022-09-01T05:11:33;13.30;;;6.65;;
71038;SDS011;58692;43.212;27.908;2022-09-01T05:14:01;9.88;;;6.30;;
71038;SDS011;58692;43.212;27.908;2022-09-01T05:16:29;12.82;;;6.20;;
71038;SDS011;58692;43.212;27.908;2022-09-01T05:18:56;12.07;;;6.33;;
71038;SDS011;58692;43.212;27.908;2022-09-01T05:21:22;12.25;;;6.00;;
71038;SDS011;58692;43.212;27.908;2022-09-01T05:23:50;10.15;;;5.88;;
71038;SDS011;58692;43.212;27.908;2022-09-01T05:26:18;11.45;;;5.85;;
71038;SDS011;58692;43.212;27.908;2022-09-01T05:28:48;11.27;;;6.30;;
71038;SDS011;58692;43.212;27.908;2022-09-01T05:31:18;11.13;;;6.57;;
71038;SDS011;58692;43.212;27.908;2022-09-01T05:33:48;12.65;;;6.43;;
71038;SDS011;58692;43.212;27.908;2022-09-01T05:36:16;9.25;;;5.97;;
71038;SDS011;58692;43.212;27.908;2022-09-01T05:38:44;11.90;;;6.47;;
71038;SDS011;58692;43.212;27.908;2022-09-01T05:41:11;11.27;;;6.15;;
71038;SDS011;58692;43.212;27.908;2022-09-01T05:43:42;10.63;;;6.40;;
71038;SDS011;58692;43.212;27.908;2022-09-01T05:46:13;12.77;;;6.65;;
71038;SDS011;58692;43.212;27.908;2022-09-01T05:48:42;11.60;;;6.43;;
71038;SDS011;58692;43.212;27.908;2022-09-01T05:51:10;14.13;;;6.72;;
71038;SDS011;58692;43.212;27.908;2022-09-01T05:53:39;16.23;;;7.00;;
71038;SDS011;58692;43.212;27.908;2022-09-01T05:56:05;11.93;;;7.17;;
71038;SDS011;58692;43.212;27.908;2022-09-01T05:58:33;13.60;;;6.90;;
71038;SDS011;58692;43.212;27.908;2022-09-01T06:01:00;12.02;;;6.43;;
71038;SDS011;58692;43.212;27.908;2022-09-01T06:03:27;10.20;;;5.83;;
71038;SDS011;58692;43.212;27.908;2022-09-01T06:05:53;12.75;;;6.60;;
71038;SDS011;58692;43.212;27.908;2022-09-01T06:08:21;11.23;;;6.25;;
71038;SDS011;58692;43.212;27.908;2022-09-01T06:10:49;14.80;;;6.47;;
71038;SDS011;58692;43.212;27.908;2022-09-01T06:13:16;10.80;;;6.53;;
71038;SDS011;58692;43.212;27.908;2022-09-01T06:15:46;12.40;;;6.10;;
71038;SDS011;58692;43.212;27.908;2022-09-01T06:18:13;9.15;;;5.90;;
71038;SDS011;58692;43.212;27.908;2022-09-01T06:20:41;12.10;;;6.40;;
71038;SDS011;58692;43.212;27.908;2022-09-01T06:23:11;9.55;;;5.88;;
71038;SDS011;58692;43.212;27.908;2022-09-01T06:25:40;10.52;;;6.03;;
71038;SDS011;58692;43.212;27.908;2022-09-01T06:28:11;11.57;;;6.07;;
71038;SDS011;58692;43.212;27.908;2022-09-01T06:30:39;9.18;;;5.80;;
71038;SDS011;58692;43.212;27.908;2022-09-01T06:33:07;12.18;;;5.80;;
71038;SDS011;58692;43.212;27.908;2022-09-01T06:35:33;10.77;;;6.50;;
71038;SDS011;58692;43.212;27.908;2022-09-01T06:38:01;13.35;;;6.13;;
71038;SDS011;58692;43.212;27.908;2022-09-01T06:40:28;9.97;;;6.03;;
71038;SDS011;58692;43.212;27.908;2022-09-01T06:42:54;10.95;;;6.25;;
71038;SDS011;58692;43.212;27.908;2022-09-01T06:45:21;15.57;;;6.57;;
71038;SDS011;58692;43.212;27.908;2022-09-01T06:47:49;11.77;;;6.15;;
71038;SDS011;58692;43.212;27.908;2022-09-01T06:50:17;14.82;;;6.35;;
71038;SDS011;58692;43.212;27.908;2022-09-01T06:52:46;10.15;;;6.07;;
71038;SDS011;58692;43.212;27.908;2022-09-01T06:55:14;11.88;;;6.00;;
71038;SDS011;58692;43.212;27.908;2022-09-01T06:57:41;10.90;;;6.13;;
71038;SDS011;58692;43.212;27.908;2022-09-01T07:00:18;10.73;;;5.93;;
71038;SDS011;58692;43.212;27.908;2022-09-01T07:02:55;11.25;;;6.22;;
71038;SDS011;58692;43.212;27.908;2022-09-01T07:05:22;11.48;;;6.22;;
71038;SDS011;58692;43.212;27.908;2022-09-01T07:07:49;10.85;;;6.22;;
71038;SDS011;58692;43.212;27.908;2022-09-01T07:10:18;13.33;;;6.57;;
71038;SDS011;58692;43.212;27.908;2022-09-01T07:12:48;10.90;;;6.38;;
71038;SDS011;58692;43.212;27.908;2022-09-01T07:15:14;11.68;;;6.53;;
71038;SDS011;58692;43.212;27.908;2022-09-01T07:17:45;11.07;;;6.30;;
71038;SDS011;58692;43.212;27.908;2022-09-01T07:20:14;12.68;;;5.90;;
71038;SDS011;58692;43.212;27.908;2022-09-01T07:22:41;11.10;;;6.30;;
71038;SDS011;58692;43.212;27.908;2022-09-01T07:25:07;11.18;;;6.03;;
71038;SDS011;58692;43.212;27.908;2022-09-01T07:27:36;10.25;;;6.22;;
71038;SDS011;58692;43.212;27.908;2022-09-01T07:30:03;13.38;;;6.28;;
71038;SDS011;58692;43.212;27.908;2022-09-01T07:32:34;10.63;;;6.13;;
71038;SDS011;58692;43.212;27.908;2022-09-01T07:35:03;12.27;;;6.57;;
71038;SDS011;58692;43.212;27.908;2022-09-01T07:37:30;12.63;;;6.63;;
71038;SDS011;58692;43.212;27.908;2022-09-01T07:39:56;10.63;;;6.47;;
71038;SDS011;58692;43.212;27.908;2022-09-01T07:42:22;14.65;;;7.05;;
71038;SDS011;58692;43.212;27.908;2022-09-01T07:44:48;11.17;;;6.47;;
71038;SDS011;58692;43.212;27.908;2022-09-01T07:47:14;11.90;;;6.47;;
71038;SDS011;58692;43.212;27.908;2022-09-01T07:49:41;11.82;;;6.57;;
71038;SDS011;58692;43.212;27.908;2022-09-01T07:52:06;12.00;;;6.50;;
71038;SDS011;58692;43.212;27.908;2022-09-01T07:54:32;11.27;;;6.57;;
71038;SDS011;58692;43.212;27.908;2022-09-01T07:57:00;14.23;;;6.93;;
71038;SDS011;58692;43.212;27.908;2022-09-01T07:59:25;14.27;;;6.97;;
71038;SDS011;58692;43.212;27.908;2022-09-01T08:01:52;11.68;;;7.00;;
71038;SDS011;58692;43.212;27.908;2022-09-01T08:04:17;12.50;;;6.60;;
71038;SDS011;58692;43.212;27.908;2022-09-01T08:06:47;11.95;;;6.85;;
71038;SDS011;58692;43.212;27.908;2022-09-01T08:09:13;10.57;;;6.38;;
71038;SDS011;58692;43.212;27.908;2022-09-01T08:11:39;11.13;;;6.63;;
71038;SDS011;58692;43.212;27.908;2022-09-01T08:14:05;15.63;;;6.57;;
71038;SDS011;58692;43.212;27.908;2022-09-01T08:16:31;11.27;;;6.25;;
71038;SDS011;58692;43.212;27.908;2022-09-01T08:18:57;12.48;;;6.30;;
71038;SDS011;58692;43.212;27.908;2022-09-01T08:21:23;11.07;;;6.40;;
71038;SDS011;58692;43.212;27.908;2022-09-01T08:23:50;12.10;;;6.53;;
71038;SDS011;58692;43.212;27.908;2022-09-01T08:26:18;15.57;;;6.70;;
71038;SDS011;58692;43.212;27.908;2022-09-01T08:28:46;17.30;;;6.75;;
71038;SDS011;58692;43.212;27.908;2022-09-01T08:31:12;13.67;;;6.43;;
71038;SDS011;58692;43.212;27.908;2022-09-01T08:33:40;11.05;;;6.40;;
71038;SDS011;58692;43.212;27.908;2022-09-01T08:36:07;13.23;;;6.38;;
71038;SDS011;58692;43.212;27.908;2022-09-01T08:38:34;11.13;;;6.82;;
71038;SDS011;58692;43.212;27.908;2022-09-01T08:41:00;11.30;;;7.00;;
71038;SDS011;58692;43.212;27.908;2022-09-01T08:46:11;14.77;;;6.88;;
71038;SDS011;58692;43.212;27.908;2022-09-01T08:48:42;10.35;;;6.30;;
71038;SDS011;58692;43.212;27.908;2022-09-01T08:53:40;9.45;;;6.25;;
71038;SDS011;58692;43.212;27.908;2022-09-01T08:56:09;13.67;;;6.33;;
71038;SDS011;58692;43.212;27.908;2022-09-01T08:58:37;11.68;;;6.55;;
71038;SDS011;58692;43.212;27.908;2022-09-01T09:01:07;13.88;;;6.63;;
71038;SDS011;58692;43.212;27.908;2022-09-01T09:03:50;12.32;;;6.88;;
71038;SDS011;58692;43.212;27.908;2022-09-01T09:06:29;12.53;;;6.67;;
71038;SDS011;58692;43.212;27.908;2022-09-01T09:08:57;11.25;;;6.40;;
71038;SDS011;58692;43.212;27.908;2022-09-01T09:14:19;12.85;;;6.40;;
71038;SDS011;58692;43.212;27.908;2022-09-01T09:17:06;10.35;;;6.97;;
71038;SDS011;58692;43.212;27.908;2022-09-01T09:19:36;12.83;;;6.73;;
71038;SDS011;58692;43.212;27.908;2022-09-01T09:22:05;15.38;;;6.75;;
71038;SDS011;58692;43.212;27.908;2022-09-01T09:27:24;13.10;;;6.78;;
71038;SDS011;58692;43.212;27.908;2022-09-01T09:29:52;12.07;;;6.55;;
71038;SDS011;58692;43.212;27.908;2022-09-01T09:32:21;12.13;;;7.07;;
71038;SDS011;58692;43.212;27.908;2022-09-01T09:34:48;14.23;;;7.13;;
71038;SDS011;58692;43.212;27.908;2022-09-01T09:42:41;11.05;;;7.00;;
71038;SDS011;58692;43.212;27.908;2022-09-01T09:45:27;12.20;;;7.33;;
71038;SDS011;58692;43.212;27.908;2022-09-01T09:47:54;12.82;;;7.00;;
71038;SDS011;58692;43.212;27.908;2022-09-01T09:52:51;10.10;;;7.00;;
71038;SDS011;58692;43.212;27.908;2022-09-01T09:55:20;18.10;;;6.93;;
71038;SDS011;58692;43.212;27.908;2022-09-01T09:57:46;12.07;;;7.23;;
71038;SDS011;58692;43.212;27.908;2022-09-01T10:00:17;14.30;;;6.80;;
71038;SDS011;58692;43.212;27.908;2022-09-01T10:02:44;12.02;;;6.78;;
71038;SDS011;58692;43.212;27.908;2022-09-01T10:05:34;12.25;;;7.40;;
71038;SDS011;58692;43.212;27.908;2022-09-01T10:08:07;11.40;;;6.43;;
71038;SDS011;58692;43.212;27.908;2022-09-01T10:13:18;12.52;;;6.90;;
71038;SDS011;58692;43.212;27.908;2022-09-01T10:15:47;13.07;;;6.88;;
71038;SDS011;58692;43.212;27.908;2022-09-01T10:18:17;11.98;;;6.70;;
71038;SDS011;58692;43.212;27.908;2022-09-01T10:20:50;13.15;;;7.40;;
71038;SDS011;58692;43.212;27.908;2022-09-01T10:23:20;14.20;;;6.80;;
71038;SDS011;58692;43.212;27.908;2022-09-01T10:25:46;14.02;;;7.03;;
71038;SDS011;58692;43.212;27.908;2022-09-01T10:28:15;11.98;;;6.60;;
71038;SDS011;58692;43.212;27.908;2022-09-01T10:30:48;14.33;;;7.00;;
71038;SDS011;58692;43.212;27.908;2022-09-01T10:33:17;11.52;;;6.95;;
71038;SDS011;58692;43.212;27.908;2022-09-01T10:35:45;14.43;;;6.57;;
71038;SDS011;58692;43.212;27.908;2022-09-01T10:38:15;14.93;;;7.32;;
71038;SDS011;58692;43.212;27.908;2022-09-01T10:40:51;14.55;;;6.97;;
71038;SDS011;58692;43.212;27.908;2022-09-01T10:43:39;15.00;;;6.70;;
71038;SDS011;58692;43.212;27.908;2022-09-01T10:46:07;11.30;;;6.72;;
71038;SDS011;58692;43.212;27.908;2022-09-01T10:48:33;13.82;;;7.30;;
71038;SDS011;58692;43.212;27.908;2022-09-01T10:56:17;11.13;;;7.00;;
71038;SDS011;58692;43.212;27.908;2022-09-01T11:04:07;13.50;;;7.10;;
71038;SDS011;58692;43.212;27.908;2022-09-01T11:12:15;15.10;;;7.43;;
71038;SDS011;58692;43.212;27.908;2022-09-01T11:15:01;11.97;;;6.60;;
71038;SDS011;58692;43.212;27.908;2022-09-01T11:30:44;12.60;;;6.70;;
71038;SDS011;58692;43.212;27.908;2022-09-01T11:36:23;13.20;;;7.23;;
71038;SDS011;58692;43.212;27.908;2022-09-01T11:41:57;13.98;;;7.30;;
71038;SDS011;58692;43.212;27.908;2022-09-01T11:47:02;14.25;;;6.82;;
71038;SDS011;58692;43.212;27.908;2022-09-01T11:49:32;13.17;;;7.60;;
71038;SDS011;58692;43.212;27.908;2022-09-01T11:52:01;13.63;;;8.05;;
71038;SDS011;58692;43.212;27.908;2022-09-01T11:54:28;14.48;;;8.05;;
71038;SDS011;58692;43.212;27.908;2022-09-01T11:59:49;15.55;;;8.07;;
71038;SDS011;58692;43.212;27.908;2022-09-01T12:02:19;13.23;;;7.67;;
71038;SDS011;58692;43.212;27.908;2022-09-01T12:04:49;14.10;;;7.30;;
71038;SDS011;58692;43.212;27.908;2022-09-01T12:10:02;13.57;;;7.60;;
71038;SDS011;58692;43.212;27.908;2022-09-01T12:12:32;14.60;;;7.88;;
71038;SDS011;58692;43.212;27.908;2022-09-01T12:15:03;16.20;;;7.63;;
71038;SDS011;58692;43.212;27.908;2022-09-01T12:17:33;13.43;;;7.57;;
71038;SDS011;58692;43.212;27.908;2022-09-01T12:22:45;17.15;;;8.30;;
71038;SDS011;58692;43.212;27.908;2022-09-01T12:25:21;14.87;;;7.73;;
71038;SDS011;58692;43.212;27.908;2022-09-01T12:27:49;15.75;;;7.70;;
71038;SDS011;58692;43.212;27.908;2022-09-01T12:30:15;14.18;;;7.28;;
71038;SDS011;58692;43.212;27.908;2022-09-01T12:32:43;17.48;;;7.80;;
71038;SDS011;58692;43.212;27.908;2022-09-01T12:35:17;13.63;;;7.72;;
71038;SDS011;58692;43.212;27.908;2022-09-01T12:37:47;15.00;;;7.30;;
71038;SDS011;58692;43.212;27.908;2022-09-01T12:40:23;19.13;;;7.47;;
71038;SDS011;58692;43.212;27.908;2022-09-01T12:42:54;17.40;;;7.90;;
71038;SDS011;58692;43.212;27.908;2022-09-01T12:48:02;12.27;;;7.30;;
71038;SDS011;58692;43.212;27.908;2022-09-01T12:57:50;16.65;;;7.15;;
71038;SDS011;58692;43.212;27.908;2022-09-01T13:00:20;14.55;;;7.25;;
71038;SDS011;58692;43.212;27.908;2022-09-01T13:02:51;15.80;;;7.38;;
71038;SDS011;58692;43.212;27.908;2022-09-01T13:08:00;15.75;;;7.03;;
71038;SDS011;58692;43.212;27.908;2022-09-01T13:10:32;15.50;;;7.30;;
71038;SDS011;58692;43.212;27.908;2022-09-01T13:13:02;15.48;;;7.30;;
71038;SDS011;58692;43.212;27.908;2022-09-01T13:15:29;17.00;;;7.97;;
71038;SDS011;58692;43.212;27.908;2022-09-01T13:17:55;14.23;;;6.77;;
71038;SDS011;58692;43.212;27.908;2022-09-01T13:20:21;15.15;;;7.82;;
71038;SDS011;58692;43.212;27.908;2022-09-01T13:22:47;13.25;;;7.35;;
71038;SDS011;58692;43.212;27.908;2022-09-01T13:25:14;14.65;;;7.50;;
71038;SDS011;58692;43.212;27.908;2022-09-01T13:27:42;13.07;;;6.67;;
71038;SDS011;58692;43.212;27.908;2022-09-01T13:30:09;12.18;;;6.65;;
71038;SDS011;58692;43.212;27.908;2022-09-01T13:32:41;13.55;;;6.93;;
71038;SDS011;58692;43.212;27.908;2022-09-01T13:35:09;15.80;;;7.70;;
71038;SDS011;58692;43.212;27.908;2022-09-01T13:37:35;13.25;;;7.18;;
71038;SDS011;58692;43.212;27.908;2022-09-01T13:40:02;15.70;;;7.20;;
71038;SDS011;58692;43.212;27.908;2022-09-01T13:42:30;16.67;;;7.57;;
71038;SDS011;58692;43.212;27.908;2022-09-01T13:44:55;15.70;;;7.43;;
71038;SDS011;58692;43.212;27.908;2022-09-01T13:47:21;12.30;;;6.80;;
71038;SDS011;58692;43.212;27.908;2022-09-01T13:49:48;11.85;;;6.80;;
71038;SDS011;58692;43.212;27.908;2022-09-01T13:52:14;12.73;;;6.88;;
71038;SDS011;58692;43.212;27.908;2022-09-01T13:54:40;15.55;;;6.50;;
71038;SDS011;58692;43.212;27.908;2022-09-01T13:57:08;14.20;;;7.40;;
71038;SDS011;58692;43.212;27.908;2022-09-01T13:59:35;11.13;;;6.95;;
71038;SDS011;58692;43.212;27.908;2022-09-01T14:02:01;14.60;;;7.00;;
71038;SDS011;58692;43.212;27.908;2022-09-01T14:04:26;12.40;;;6.40;;
71038;SDS011;58692;43.212;27.908;2022-09-01T14:06:52;13.60;;;7.50;;
71038;SDS011;58692;43.212;27.908;2022-09-01T14:09:17;13.95;;;7.55;;
71038;SDS011;58692;43.212;27.908;2022-09-01T14:11:43;11.73;;;7.23;;
71038;SDS011;58692;43.212;27.908;2022-09-01T14:14:09;14.70;;;7.57;;
71038;SDS011;58692;43.212;27.908;2022-09-01T14:16:35;13.10;;;7.07;;
71038;SDS011;58692;43.212;27.908;2022-09-01T14:19:00;11.80;;;6.72;;
71038;SDS011;58692;43.212;27.908;2022-09-01T14:21:25;14.57;;;6.90;;
71038;SDS011;58692;43.212;27.908;2022-09-01T14:23:51;14.37;;;6.80;;
71038;SDS011;58692;43.212;27.908;2022-09-01T14:26:17;14.07;;;7.15;;
71038;SDS011;58692;43.212;27.908;2022-09-01T14:28:44;13.45;;;6.97;;
71038;SDS011;58692;43.212;27.908;2022-09-01T14:31:12;13.38;;;6.82;;
71038;SDS011;58692;43.212;27.908;2022-09-01T14:33:40;14.05;;;7.20;;
71038;SDS011;58692;43.212;27.908;2022-09-01T14:36:07;12.33;;;7.20;;
71038;SDS011;58692;43.212;27.908;2022-09-01T14:38:33;11.10;;;7.00;;
71038;SDS011;58692;43.212;27.908;2022-09-01T14:40:59;12.95;;;6.68;;
71038;SDS011;58692;43.212;27.908;2022-09-01T14:43:26;12.67;;;6.10;;
71038;SDS011;58692;43.212;27.908;2022-09-01T14:48:34;11.65;;;7.07;;
71038;SDS011;58692;43.212;27.908;2022-09-01T14:51:02;13.60;;;6.95;;
71038;SDS011;58692;43.212;27.908;2022-09-01T14:53:29;14.93;;;7.60;;
71038;SDS011;58692;43.212;27.908;2022-09-01T14:55:57;16.00;;;7.23;;
71038;SDS011;58692;43.212;27.908;2022-09-01T14:58:24;13.80;;;6.93;;
71038;SDS011;58692;43.212;27.908;2022-09-01T15:00:52;14.25;;;7.15;;
71038;SDS011;58692;43.212;27.908;2022-09-01T15:03:20;12.88;;;6.38;;
71038;SDS011;58692;43.212;27.908;2022-09-01T15:05:47;11.90;;;6.63;;
71038;SDS011;58692;43.212;27.908;2022-09-01T15:08:14;12.53;;;7.20;;
71038;SDS011;58692;43.212;27.908;2022-09-01T15:10:40;11.13;;;6.65;;
71038;SDS011;58692;43.212;27.908;2022-09-01T15:13:05;13.25;;;6.75;;
71038;SDS011;58692;43.212;27.908;2022-09-01T15:15:31;13.48;;;7.03;;
71038;SDS011;58692;43.212;27.908;2022-09-01T15:17:58;13.67;;;6.50;;
71038;SDS011;58692;43.212;27.908;2022-09-01T15:20:24;14.35;;;6.65;;
71038;SDS011;58692;43.212;27.908;2022-09-01T15:23:05;17.42;;;7.00;;
71038;SDS011;58692;43.212;27.908;2022-09-01T15:25:31;12.77;;;6.80;;
71038;SDS011;58692;43.212;27.908;2022-09-01T15:27:58;13.68;;;7.13;;
71038;SDS011;58692;43.212;27.908;2022-09-01T15:30:23;11.98;;;6.57;;
71038;SDS011;58692;43.212;27.908;2022-09-01T15:32:50;12.57;;;6.93;;
71038;SDS011;58692;43.212;27.908;2022-09-01T15:35:17;12.95;;;7.13;;
71038;SDS011;58692;43.212;27.908;2022-09-01T15:37:45;16.27;;;6.70;;
71038;SDS011;58692;43.212;27.908;2022-09-01T15:40:12;12.43;;;6.70;;
71038;SDS011;58692;43.212;27.908;2022-09-01T15:42:39;12.93;;;6.67;;
71038;SDS011;58692;43.212;27.908;2022-09-01T15:45:08;14.10;;;6.88;;
71038;SDS011;58692;43.212;27.908;2022-09-01T15:47:36;13.20;;;6.50;;
71038;SDS011;58692;43.212;27.908;2022-09-01T15:50:03;10.85;;;6.05;;
71038;SDS011;58692;43.212;27.908;2022-09-01T15:52:31;14.45;;;6.60;;
71038;SDS011;58692;43.212;27.908;2022-09-01T15:54:58;15.00;;;6.77;;
71038;SDS011;58692;43.212;27.908;2022-09-01T15:57:23;12.30;;;6.18;;
71038;SDS011;58692;43.212;27.908;2022-09-01T15:59:50;13.53;;;6.23;;
71038;SDS011;58692;43.212;27.908;2022-09-01T16:02:15;12.48;;;6.30;;
71038;SDS011;58692;43.212;27.908;2022-09-01T16:04:46;16.38;;;6.55;;